sensor_id;sensor_type;location;lat;lon;timestamp;pressure;altitude;pressure_sealevel;temperature;humidity
86206;BME280;76857;48.140;11.594;2024-03-06T05:00:48;95715.00;;;5.42;82.56
86206;BME280;76857;48.140;11.594;2024-03-06T05:03:14;95719.84;;;5.45;82.90
86206;BME280;76857;48.140;11.594;2024-03-06T05:05:40;95723.75;;;5.50;82.29
86206;BME280;76857;48.140;11.594;2024-03-06T05:08:06;95732.25;;;5.58;82.29
86206;BME280;76857;48.140;11.594;2024-03-06T05:10:32;95733.69;;;5.54;82.15
86206;BME280;76857;48.140;11.594;2024-03-06T05:12:57;95732.50;;;5.50;81.55
86206;BME280;76857;48.140;11.594;2024-03-06T05:15:23;95741.84;;;5.46;82.15
86206;BME280;76857;48.140;11.594;2024-03-06T05:17:48;95746.31;;;5.52;81.65
86206;BME280;76857;48.140;11.594;2024-03-06T05:20:14;95740.44;;;5.50;80.97
86206;BME280;76857;48.140;11.594;2024-03-06T05:22:39;95725.81;;;5.34;80.85
86206;BME280;76857;48.140;11.594;2024-03-06T05:25:05;95736.78;;;5.44;79.84
86206;BME280;76857;48.140;11.594;2024-03-06T05:27:31;95743.28;;;5.42;79.71
86206;BME280;76857;48.140;11.594;2024-03-06T05:29:57;95744.72;;;5.25;80.74
86206;BME280;76857;48.140;11.594;2024-03-06T05:32:22;95747.78;;;5.22;80.20
86206;BME280;76857;48.140;11.594;2024-03-06T05:34:47;95750.25;;;5.23;80.83
86206;BME280;76857;48.140;11.594;2024-03-06T05:37:13;95760.81;;;5.23;80.73
86206;BME280;76857;48.140;11.594;2024-03-06T05:39:38;95754.09;;;5.14;80.35
86206;BME280;76857;48.140;11.594;2024-03-06T05:42:04;95763.03;;;5.13;80.37
86206;BME280;76857;48.140;11.594;2024-03-06T05:44:31;95758.56;;;5.14;80.42
86206;BME280;76857;48.140;11.594;2024-03-06T05:47:00;95762.44;;;5.11;80.80
86206;BME280;76857;48.140;11.594;2024-03-06T05:49:26;95769.16;;;5.07;80.19
86206;BME280;76857;48.140;11.594;2024-03-06T05:51:52;95772.81;;;5.06;79.97
86206;BME280;76857;48.140;11.594;2024-03-06T05:54:18;95773.19;;;5.03;80.91
86206;BME280;76857;48.140;11.594;2024-03-06T05:56:44;95774.66;;;5.05;81.60
86206;BME280;76857;48.140;11.594;2024-03-06T05:59:10;95772.00;;;5.05;81.49
86206;BME280;76857;48.140;11.594;2024-03-06T06:01:35;95770.38;;;5.04;80.69
86206;BME280;76857;48.140;11.594;2024-03-06T06:04:01;95777.47;;;4.97;80.46
86206;BME280;76857;48.140;11.594;2024-03-06T06:06:26;95777.47;;;4.97;81.24
86206;BME280;76857;48.140;11.594;2024-03-06T06:08:52;95778.09;;;4.99;80.95
86206;BME280;76857;48.140;11.594;2024-03-06T06:11:17;95778.47;;;4.96;81.33
86206;BME280;76857;48.140;11.594;2024-03-06T06:13:43;95776.47;;;4.98;80.47
86206;BME280;76857;48.140;11.594;2024-03-06T06:16:08;95783.56;;;4.91;80.95
86206;BME280;76857;48.140;11.594;2024-03-06T06:18:34;95786.41;;;4.96;81.80
86206;BME280;76857;48.140;11.594;2024-03-06T06:20:59;95796.59;;;4.93;80.58
86206;BME280;76857;48.140;11.594;2024-03-06T06:23:25;95797.41;;;4.93;81.25
86206;BME280;76857;48.140;11.594;2024-03-06T06:25:51;95804.53;;;4.99;81.13
86206;BME280;76857;48.140;11.594;2024-03-06T06:28:17;95799.25;;;4.99;81.48
86206;BME280;76857;48.140;11.594;2024-03-06T06:30:42;95801.06;;;4.99;82.50
86206;BME280;76857;48.140;11.594;2024-03-06T06:33:07;95801.69;;;5.01;81.74
86206;BME280;76857;48.140;11.594;2024-03-06T06:35:34;95809.63;;;5.01;82.39
86206;BME280;76857;48.140;11.594;2024-03-06T06:38:02;95817.94;;;4.98;81.93
86206;BME280;76857;48.140;11.594;2024-03-06T06:40:30;95805.16;;;5.01;81.29
86206;BME280;76857;48.140;11.594;2024-03-06T06:42:55;95813.28;;;5.00;81.55
86206;BME280;76857;48.140;11.594;2024-03-06T06:45:21;95810.03;;;5.04;81.34
86206;BME280;76857;48.140;11.594;2024-03-06T06:47:48;95809.84;;;5.13;81.76
86206;BME280;76857;48.140;11.594;2024-03-06T06:50:13;95816.16;;;5.12;81.91
86206;BME280;76857;48.140;11.594;2024-03-06T06:52:39;95816.94;;;5.19;81.32
86206;BME280;76857;48.140;11.594;2024-03-06T06:55:05;95813.50;;;5.18;82.08
86206;BME280;76857;48.140;11.594;2024-03-06T06:57:31;95810.03;;;5.11;82.46
86206;BME280;76857;48.140;11.594;2024-03-06T06:59:56;95810.25;;;5.23;82.53
86206;BME280;76857;48.140;11.594;2024-03-06T07:02:22;95815.75;;;5.21;83.44
86206;BME280;76857;48.140;11.594;2024-03-06T07:04:47;95817.97;;;5.24;82.75
86206;BME280;76857;48.140;11.594;2024-03-06T07:07:14;95822.03;;;5.20;83.56
86206;BME280;76857;48.140;11.594;2024-03-06T07:09:39;95828.75;;;5.16;83.73
86206;BME280;76857;48.140;11.594;2024-03-06T07:12:05;95828.97;;;5.21;83.54
86206;BME280;76857;48.140;11.594;2024-03-06T07:14:30;95827.34;;;5.27;82.93
86206;BME280;76857;48.140;11.594;2024-03-06T07:16:56;95829.78;;;5.35;82.10
86206;BME280;76857;48.140;11.594;2024-03-06T07:19:21;95834.28;;;5.34;82.07
86206;BME280;76857;48.140;11.594;2024-03-06T07:21:46;95831.00;;;5.26;81.55
86206;BME280;76857;48.140;11.594;2024-03-06T07:24:12;95832.00;;;5.31;81.33
86206;BME280;76857;48.140;11.594;2024-03-06T07:26:38;95835.88;;;5.22;81.35
86206;BME280;76857;48.140;11.594;2024-03-06T07:29:03;95836.28;;;5.19;82.05
86206;BME280;76857;48.140;11.594;2024-03-06T07:31:29;95847.66;;;5.13;82.12
86206;BME280;76857;48.140;11.594;2024-03-06T07:33:54;95849.50;;;5.06;81.98
86206;BME280;76857;48.140;11.594;2024-03-06T07:36:20;95855.59;;;5.07;82.77
86206;BME280;76857;48.140;11.594;2024-03-06T07:38:47;95847.25;;;5.03;82.17
86206;BME280;76857;48.140;11.594;2024-03-06T07:41:12;95850.50;;;4.98;83.13
86206;BME280;76857;48.140;11.594;2024-03-06T07:43:37;95852.94;;;5.00;82.42
86206;BME280;76857;48.140;11.594;2024-03-06T07:46:04;95846.41;;;5.02;82.01
86206;BME280;76857;48.140;11.594;2024-03-06T07:48:38;95854.34;;;5.02;82.33
86206;BME280;76857;48.140;11.594;2024-03-06T07:51:07;95858.47;;;5.12;82.18
86206;BME280;76857;48.140;11.594;2024-03-06T07:53:33;95862.09;;;5.11;82.56
86206;BME280;76857;48.140;11.594;2024-03-06T07:55:58;95860.09;;;5.13;82.81
86206;BME280;76857;48.140;11.594;2024-03-06T07:58:24;95865.56;;;5.11;82.34
86206;BME280;76857;48.140;11.594;2024-03-06T08:00:49;95861.72;;;5.07;82.17
86206;BME280;76857;48.140;11.594;2024-03-06T08:03:14;95871.69;;;5.12;81.56
86206;BME280;76857;48.140;11.594;2024-03-06T08:05:40;95856.81;;;5.11;81.87
86206;BME280;76857;48.140;11.594;2024-03-06T08:08:05;95860.50;;;5.16;82.30
86206;BME280;76857;48.140;11.594;2024-03-06T08:10:31;95862.09;;;5.24;82.18
86206;BME280;76857;48.140;11.594;2024-03-06T08:12:56;95866.63;;;5.23;81.46
86206;BME280;76857;48.140;11.594;2024-03-06T08:15:22;95871.47;;;5.13;82.66
86206;BME280;76857;48.140;11.594;2024-03-06T08:17:49;95879.41;;;5.20;82.81
86206;BME280;76857;48.140;11.594;2024-03-06T08:20:15;95883.69;;;5.21;82.58
86206;BME280;76857;48.140;11.594;2024-03-06T08:22:41;95878.00;;;5.30;81.76
86206;BME280;76857;48.140;11.594;2024-03-06T08:25:08;95887.38;;;5.26;82.24
86206;BME280;76857;48.140;11.594;2024-03-06T08:27:38;95884.91;;;5.31;83.03
86206;BME280;76857;48.140;11.594;2024-03-06T08:30:04;95883.28;;;5.30;82.37
86206;BME280;76857;48.140;11.594;2024-03-06T08:32:34;95890.00;;;5.26;82.38
86206;BME280;76857;48.140;11.594;2024-03-06T08:35:08;95894.91;;;5.36;82.19
86206;BME280;76857;48.140;11.594;2024-03-06T08:37:37;95893.88;;;5.37;82.11
86206;BME280;76857;48.140;11.594;2024-03-06T08:40:03;95893.25;;;5.35;81.81
86206;BME280;76857;48.140;11.594;2024-03-06T08:42:29;95895.28;;;5.26;81.91
86206;BME280;76857;48.140;11.594;2024-03-06T08:44:54;95900.59;;;5.26;82.49
86206;BME280;76857;48.140;11.594;2024-03-06T08:47:20;95891.81;;;5.19;83.00
86206;BME280;76857;48.140;11.594;2024-03-06T08:49:45;95897.53;;;5.23;82.92
86206;BME280;76857;48.140;11.594;2024-03-06T08:52:11;95895.91;;;5.28;82.52
86206;BME280;76857;48.140;11.594;2024-03-06T08:54:36;95896.91;;;5.21;83.42
86206;BME280;76857;48.140;11.594;2024-03-06T08:57:03;95902.00;;;5.16;84.51
86206;BME280;76857;48.140;11.594;2024-03-06T08:59:29;95897.13;;;5.26;83.82
86206;BME280;76857;48.140;11.594;2024-03-06T09:01:55;95902.81;;;5.29;82.85
86206;BME280;76857;48.140;11.594;2024-03-06T09:04:21;95908.34;;;5.34;82.45
86206;BME280;76857;48.140;11.594;2024-03-06T09:06:47;95919.31;;;5.31;83.49
86206;BME280;76857;48.140;11.594;2024-03-06T09:09:14;95914.84;;;5.32;82.16
86206;BME280;76857;48.140;11.594;2024-03-06T09:11:43;95918.69;;;5.36;82.86
86206;BME280;76857;48.140;11.594;2024-03-06T09:14:09;95917.31;;;5.40;82.70
86206;BME280;76857;48.140;11.594;2024-03-06T09:16:35;95917.53;;;5.45;82.35
86206;BME280;76857;48.140;11.594;2024-03-06T09:19:01;95926.88;;;5.47;83.24
86206;BME280;76857;48.140;11.594;2024-03-06T09:21:27;95926.88;;;5.47;83.26
86206;BME280;76857;48.140;11.594;2024-03-06T09:23:52;95922.59;;;5.53;82.62
86206;BME280;76857;48.140;11.594;2024-03-06T09:26:18;95927.25;;;5.51;81.91
86206;BME280;76857;48.140;11.594;2024-03-06T09:28:43;95928.50;;;5.55;82.61
86206;BME280;76857;48.140;11.594;2024-03-06T09:31:09;95931.19;;;5.62;82.29
86206;BME280;76857;48.140;11.594;2024-03-06T09:33:34;95930.72;;;5.52;83.25
86206;BME280;76857;48.140;11.594;2024-03-06T09:36:00;95927.88;;;5.53;83.04
86206;BME280;76857;48.140;11.594;2024-03-06T09:38:26;95929.09;;;5.57;83.23
86206;BME280;76857;48.140;11.594;2024-03-06T09:40:51;95939.72;;;5.64;82.64
86206;BME280;76857;48.140;11.594;2024-03-06T09:43:17;95937.69;;;5.66;82.77
86206;BME280;76857;48.140;11.594;2024-03-06T09:45:48;95936.88;;;5.72;81.85
86206;BME280;76857;48.140;11.594;2024-03-06T09:48:13;95944.81;;;5.72;82.38
86206;BME280;76857;48.140;11.594;2024-03-06T09:50:42;95934.81;;;5.74;81.53
86206;BME280;76857;48.140;11.594;2024-03-06T09:53:12;95941.75;;;5.75;82.26
86206;BME280;76857;48.140;11.594;2024-03-06T09:55:38;95940.13;;;5.80;81.95
86206;BME280;76857;48.140;11.594;2024-03-06T09:58:04;95953.34;;;5.74;82.31
86206;BME280;76857;48.140;11.594;2024-03-06T10:00:30;95947.25;;;5.73;81.65
86206;BME280;76857;48.140;11.594;2024-03-06T10:02:58;95951.94;;;5.71;81.60
86206;BME280;76857;48.140;11.594;2024-03-06T10:05:26;95950.94;;;5.72;81.29
86206;BME280;76857;48.140;11.594;2024-03-06T10:07:52;95951.72;;;5.79;81.30
86206;BME280;76857;48.140;11.594;2024-03-06T10:10:21;95959.47;;;5.68;82.03
86206;BME280;76857;48.140;11.594;2024-03-06T10:12:48;95954.59;;;5.78;81.63
86206;BME280;76857;48.140;11.594;2024-03-06T10:15:14;95955.63;;;5.77;81.55
86206;BME280;76857;48.140;11.594;2024-03-06T10:17:39;95963.97;;;5.80;81.09
86206;BME280;76857;48.140;11.594;2024-03-06T10:20:17;95959.09;;;5.77;81.95
86206;BME280;76857;48.140;11.594;2024-03-06T10:22:47;95967.63;;;5.79;81.35
86206;BME280;76857;48.140;11.594;2024-03-06T10:25:12;95975.34;;;5.68;81.55
86206;BME280;76857;48.140;11.594;2024-03-06T10:27:38;95971.06;;;5.60;81.60
86206;BME280;76857;48.140;11.594;2024-03-06T10:30:04;95972.47;;;5.63;81.62
86206;BME280;76857;48.140;11.594;2024-03-06T10:32:31;95977.59;;;5.71;81.94
86206;BME280;76857;48.140;11.594;2024-03-06T10:34:56;95974.13;;;5.70;82.61
86206;BME280;76857;48.140;11.594;2024-03-06T10:37:22;95968.41;;;5.73;81.11
86206;BME280;76857;48.140;11.594;2024-03-06T10:39:51;95970.88;;;5.81;81.08
86206;BME280;76857;48.140;11.594;2024-03-06T10:42:20;95972.09;;;5.79;81.31
86206;BME280;76857;48.140;11.594;2024-03-06T10:44:54;95980.03;;;5.79;81.14
86206;BME280;76857;48.140;11.594;2024-03-06T10:47:20;95976.38;;;5.80;81.12
86206;BME280;76857;48.140;11.594;2024-03-06T10:49:46;95977.00;;;5.82;81.46
86206;BME280;76857;48.140;11.594;2024-03-06T10:52:13;95984.34;;;5.86;80.79
86206;BME280;76857;48.140;11.594;2024-03-06T10:54:43;95980.03;;;5.85;81.19
86206;BME280;76857;48.140;11.594;2024-03-06T10:57:11;95987.81;;;5.87;82.18
86206;BME280;76857;48.140;11.594;2024-03-06T10:59:37;95985.38;;;5.92;81.55
86206;BME280;76857;48.140;11.594;2024-03-06T11:02:03;95987.41;;;5.97;81.69
86206;BME280;76857;48.140;11.594;2024-03-06T11:04:30;95985.19;;;5.94;81.95
86206;BME280;76857;48.140;11.594;2024-03-06T11:06:59;95991.31;;;5.94;81.29
86206;BME280;76857;48.140;11.594;2024-03-06T11:09:32;95994.97;;;5.93;81.47
86206;BME280;76857;48.140;11.594;2024-03-06T11:12:00;95992.91;;;5.95;81.83
86206;BME280;76857;48.140;11.594;2024-03-06T11:14:25;95994.16;;;5.99;81.71
86206;BME280;76857;48.140;11.594;2024-03-06T11:17:11;95996.38;;;6.02;82.08
86206;BME280;76857;48.140;11.594;2024-03-06T11:28:11;95991.72;;;6.04;81.63
86206;BME280;76857;48.140;11.594;2024-03-06T11:31:03;95990.69;;;5.99;82.58
86206;BME280;76857;48.140;11.594;2024-03-06T11:33:39;95989.06;;;6.04;82.16
86206;BME280;76857;48.140;11.594;2024-03-06T11:36:22;95984.97;;;6.08;82.28
86206;BME280;76857;48.140;11.594;2024-03-06T11:39:00;95987.63;;;6.15;81.12
86206;BME280;76857;48.140;11.594;2024-03-06T11:41:28;95982.53;;;6.13;81.55
86206;BME280;76857;48.140;11.594;2024-03-06T11:43:55;95983.56;;;6.19;81.51
86206;BME280;76857;48.140;11.594;2024-03-06T11:47:08;95989.44;;;6.27;80.83
86206;BME280;76857;48.140;11.594;2024-03-06T11:49:27;95983.75;;;6.24;80.95
86206;BME280;76857;48.140;11.594;2024-03-06T11:52:02;95984.78;;;6.16;81.39
86206;BME280;76857;48.140;11.594;2024-03-06T11:54:29;96000.06;;;6.14;81.98
86206;BME280;76857;48.140;11.594;2024-03-06T11:56:57;95994.34;;;6.17;81.85
86206;BME280;76857;48.140;11.594;2024-03-06T11:59:27;95992.75;;;6.16;82.16
86206;BME280;76857;48.140;11.594;2024-03-06T12:01:54;95999.25;;;6.14;81.94
86206;BME280;76857;48.140;11.594;2024-03-06T12:04:20;95998.44;;;6.13;82.28
86206;BME280;76857;48.140;11.594;2024-03-06T12:06:46;96003.94;;;6.18;82.07
86206;BME280;76857;48.140;11.594;2024-03-06T12:09:12;96000.06;;;6.21;81.87
86206;BME280;76857;48.140;11.594;2024-03-06T12:11:38;96003.31;;;6.23;81.42
86206;BME280;76857;48.140;11.594;2024-03-06T12:14:03;96002.91;;;6.19;81.81
86206;BME280;76857;48.140;11.594;2024-03-06T12:16:29;96005.13;;;6.22;81.49
86206;BME280;76857;48.140;11.594;2024-03-06T12:18:55;96000.69;;;6.16;82.48
86206;BME280;76857;48.140;11.594;2024-03-06T12:21:33;96012.88;;;6.17;82.25
86206;BME280;76857;48.140;11.594;2024-03-06T12:24:08;96005.13;;;6.22;80.85
86206;BME280;76857;48.140;11.594;2024-03-06T12:26:34;96002.28;;;6.17;83.29
86206;BME280;76857;48.140;11.594;2024-03-06T12:29:09;96013.31;;;6.14;83.26
86206;BME280;76857;48.140;11.594;2024-03-06T12:31:37;96013.94;;;6.16;82.37
86206;BME280;76857;48.140;11.594;2024-03-06T12:34:03;96012.69;;;6.19;81.85
86206;BME280;76857;48.140;11.594;2024-03-06T12:36:29;96015.34;;;6.25;81.57
86206;BME280;76857;48.140;11.594;2024-03-06T12:38:56;96016.34;;;6.18;81.71
86206;BME280;76857;48.140;11.594;2024-03-06T12:41:21;96013.31;;;6.14;82.21
86206;BME280;76857;48.140;11.594;2024-03-06T12:43:47;96019.41;;;6.15;82.41
86206;BME280;76857;48.140;11.594;2024-03-06T12:46:12;96020.22;;;6.22;81.99
86206;BME280;76857;48.140;11.594;2024-03-06T12:48:39;96020.84;;;6.17;82.37
86206;BME280;76857;48.140;11.594;2024-03-06T12:51:04;96022.06;;;6.15;82.89
86206;BME280;76857;48.140;11.594;2024-03-06T12:53:30;96015.97;;;6.14;82.18
86206;BME280;76857;48.140;11.594;2024-03-06T12:55:57;96021.44;;;6.13;83.34
86206;BME280;76857;48.140;11.594;2024-03-06T12:58:22;96022.28;;;6.20;82.79
86206;BME280;76857;48.140;11.594;2024-03-06T13:00:47;96012.69;;;6.25;82.23
86206;BME280;76857;48.140;11.594;2024-03-06T13:03:13;96022.47;;;6.32;81.01
86206;BME280;76857;48.140;11.594;2024-03-06T13:05:38;96019.63;;;6.26;81.17
86206;BME280;76857;48.140;11.594;2024-03-06T13:08:04;96022.88;;;6.28;81.85
86206;BME280;76857;48.140;11.594;2024-03-06T13:10:29;96017.78;;;6.34;81.78
86206;BME280;76857;48.140;11.594;2024-03-06T13:12:55;96023.88;;;6.34;81.76
86206;BME280;76857;48.140;11.594;2024-03-06T13:15:20;96027.38;;;6.21;81.85
86206;BME280;76857;48.140;11.594;2024-03-06T13:17:46;96029.41;;;6.19;81.55
86206;BME280;76857;48.140;11.594;2024-03-06T13:20:11;96027.56;;;6.26;80.44
86206;BME280;76857;48.140;11.594;2024-03-06T13:22:39;96024.31;;;6.24;80.33
86206;BME280;76857;48.140;11.594;2024-03-06T13:25:07;96024.50;;;6.23;80.54
86206;BME280;76857;48.140;11.594;2024-03-06T13:27:32;96030.84;;;6.15;81.57
86206;BME280;76857;48.140;11.594;2024-03-06T13:29:58;96020.84;;;6.24;80.46
86206;BME280;76857;48.140;11.594;2024-03-06T13:32:23;96015.75;;;6.16;80.63
86206;BME280;76857;48.140;11.594;2024-03-06T13:34:49;96016.16;;;6.19;80.56
86206;BME280;76857;48.140;11.594;2024-03-06T13:37:15;96011.88;;;6.32;79.90
86206;BME280;76857;48.140;11.594;2024-03-06T13:39:40;96004.13;;;6.37;79.27
86206;BME280;76857;48.140;11.594;2024-03-06T13:42:06;96002.88;;;6.39;79.78
86206;BME280;76857;48.140;11.594;2024-03-06T13:44:34;96008.63;;;6.43;79.82
86206;BME280;76857;48.140;11.594;2024-03-06T13:47:00;96012.28;;;6.48;78.91
86206;BME280;76857;48.140;11.594;2024-03-06T13:52:03;96020.03;;;6.37;78.90
86206;BME280;76857;48.140;11.594;2024-03-06T13:54:30;96009.44;;;6.43;79.69
86206;BME280;76857;48.140;11.594;2024-03-06T13:56:56;96009.81;;;6.40;79.56
86206;BME280;76857;48.140;11.594;2024-03-06T13:59:30;96013.09;;;6.42;79.47
86206;BME280;76857;48.140;11.594;2024-03-06T14:01:56;96010.06;;;6.32;79.19
86206;BME280;76857;48.140;11.594;2024-03-06T14:04:22;96016.16;;;6.33;80.17
86206;BME280;76857;48.140;11.594;2024-03-06T14:06:47;96010.88;;;6.33;79.88
86206;BME280;76857;48.140;11.594;2024-03-06T14:09:14;96019.22;;;6.36;79.99
86206;BME280;76857;48.140;11.594;2024-03-06T14:11:39;96016.13;;;6.39;80.02
86206;BME280;76857;48.140;11.594;2024-03-06T14:14:05;96024.72;;;6.41;79.30
86206;BME280;76857;48.140;11.594;2024-03-06T14:16:31;96021.66;;;6.38;79.97
86206;BME280;76857;48.140;11.594;2024-03-06T14:18:56;96026.53;;;6.34;78.97
86206;BME280;76857;48.140;11.594;2024-03-06T14:21:22;96021.03;;;6.36;79.83
86206;BME280;76857;48.140;11.594;2024-03-06T14:23:47;96025.53;;;6.35;78.76
86206;BME280;76857;48.140;11.594;2024-03-06T14:26:13;96023.31;;;6.32;79.24
86206;BME280;76857;48.140;11.594;2024-03-06T14:28:38;96021.66;;;6.38;79.42
86206;BME280;76857;48.140;11.594;2024-03-06T14:31:05;96018.19;;;6.37;79.53
86206;BME280;76857;48.140;11.594;2024-03-06T14:33:30;96021.66;;;6.31;79.88
86206;BME280;76857;48.140;11.594;2024-03-06T14:35:56;96027.97;;;6.37;79.81
86206;BME280;76857;48.140;11.594;2024-03-06T14:38:21;96021.66;;;6.38;79.58
86206;BME280;76857;48.140;11.594;2024-03-06T14:40:47;96028.38;;;6.34;79.44
86206;BME280;76857;48.140;11.594;2024-03-06T14:43:12;96030.81;;;6.35;79.31
86206;BME280;76857;48.140;11.594;2024-03-06T14:45:38;96032.28;;;6.38;78.81
86206;BME280;76857;48.140;11.594;2024-03-06T14:48:08;96038.16;;;6.33;78.56
86206;BME280;76857;48.140;11.594;2024-03-06T14:50:33;96050.19;;;6.29;79.04
86206;BME280;76857;48.140;11.594;2024-03-06T14:52:59;96038.78;;;6.28;78.66
86206;BME280;76857;48.140;11.594;2024-03-06T14:55:24;96051.41;;;6.33;78.54
86206;BME280;76857;48.140;11.594;2024-03-06T14:57:49;96047.53;;;6.36;78.20
86206;BME280;76857;48.140;11.594;2024-03-06T15:00:15;96049.00;;;6.38;78.36
86206;BME280;76857;48.140;11.594;2024-03-06T15:02:43;96053.03;;;6.27;79.43
86206;BME280;76857;48.140;11.594;2024-03-06T15:05:09;96052.81;;;6.22;78.31
86206;BME280;76857;48.140;11.594;2024-03-06T15:07:37;96051.44;;;6.26;78.35
86206;BME280;76857;48.140;11.594;2024-03-06T15:10:05;96048.97;;;6.25;78.81
86206;BME280;76857;48.140;11.594;2024-03-06T15:12:31;96052.25;;;6.27;77.80
86206;BME280;76857;48.140;11.594;2024-03-06T15:14:56;96053.25;;;6.26;78.17
86206;BME280;76857;48.140;11.594;2024-03-06T15:17:23;96051.22;;;6.21;78.21
86206;BME280;76857;48.140;11.594;2024-03-06T15:19:51;96050.78;;;6.18;78.05
86206;BME280;76857;48.140;11.594;2024-03-06T15:22:16;96055.28;;;6.17;78.07
86206;BME280;76857;48.140;11.594;2024-03-06T15:24:42;96057.09;;;6.17;78.00
86206;BME280;76857;48.140;11.594;2024-03-06T15:27:10;96058.97;;;6.16;78.27
86206;BME280;76857;48.140;11.594;2024-03-06T15:29:35;96061.63;;;6.16;78.66
86206;BME280;76857;48.140;11.594;2024-03-06T15:32:01;96064.66;;;6.13;77.64
86206;BME280;76857;48.140;11.594;2024-03-06T15:34:27;96068.13;;;6.14;77.63
86206;BME280;76857;48.140;11.594;2024-03-06T15:36:52;96063.84;;;6.13;77.37
86206;BME280;76857;48.140;11.594;2024-03-06T15:39:18;96069.13;;;6.13;77.95
86206;BME280;76857;48.140;11.594;2024-03-06T15:41:44;96060.78;;;6.09;77.23
86206;BME280;76857;48.140;11.594;2024-03-06T15:44:09;96070.38;;;6.10;77.72
86206;BME280;76857;48.140;11.594;2024-03-06T15:46:35;96069.31;;;6.11;78.67
86206;BME280;76857;48.140;11.594;2024-03-06T15:49:07;96075.88;;;6.15;78.44
86206;BME280;76857;48.140;11.594;2024-03-06T15:51:44;96070.38;;;6.10;77.80
86206;BME280;76857;48.140;11.594;2024-03-06T15:54:09;96063.81;;;6.06;77.90
86206;BME280;76857;48.140;11.594;2024-03-06T15:56:35;96066.69;;;6.05;78.09
86206;BME280;76857;48.140;11.594;2024-03-06T15:59:00;96068.09;;;6.07;78.14
86206;BME280;76857;48.140;11.594;2024-03-06T16:01:25;96064.03;;;6.11;77.87
86206;BME280;76857;48.140;11.594;2024-03-06T16:03:52;96070.16;;;6.18;77.50
86206;BME280;76857;48.140;11.594;2024-03-06T16:06:17;96074.03;;;6.16;77.66
86206;BME280;76857;48.140;11.594;2024-03-06T16:08:43;96071.19;;;6.11;77.45
86206;BME280;76857;48.140;11.594;2024-03-06T16:11:08;96078.09;;;6.12;77.66
86206;BME280;76857;48.140;11.594;2024-03-06T16:13:34;96072.19;;;6.10;77.49
86206;BME280;76857;48.140;11.594;2024-03-06T16:15:59;96075.47;;;6.05;77.94
86206;BME280;76857;48.140;11.594;2024-03-06T16:18:25;96080.94;;;6.04;78.12
86206;BME280;76857;48.140;11.594;2024-03-06T16:20:50;96086.25;;;6.04;78.11
86206;BME280;76857;48.140;11.594;2024-03-06T16:23:15;96085.03;;;6.00;78.72
86206;BME280;76857;48.140;11.594;2024-03-06T16:25:41;96086.44;;;6.02;78.70
86206;BME280;76857;48.140;11.594;2024-03-06T16:28:07;96089.91;;;6.03;78.23
86206;BME280;76857;48.140;11.594;2024-03-06T16:30:33;96085.63;;;6.02;78.46
86206;BME280;76857;48.140;11.594;2024-03-06T16:32:59;96093.38;;;6.03;78.44
86206;BME280;76857;48.140;11.594;2024-03-06T16:35:24;96087.06;;;6.04;79.24
86206;BME280;76857;48.140;11.594;2024-03-06T16:37:49;96088.47;;;6.00;79.42
86206;BME280;76857;48.140;11.594;2024-03-06T16:40:16;96106.19;;;6.06;79.22
86206;BME280;76857;48.140;11.594;2024-03-06T16:42:42;96100.09;;;6.06;78.95
86206;BME280;76857;48.140;11.594;2024-03-06T16:45:08;96107.44;;;6.04;79.27
86206;BME280;76857;48.140;11.594;2024-03-06T16:47:36;96104.34;;;6.00;79.83
86206;BME280;76857;48.140;11.594;2024-03-06T16:50:02;96111.91;;;6.03;79.41
86206;BME280;76857;48.140;11.594;2024-03-06T16:52:28;96110.91;;;6.04;79.67
86206;BME280;76857;48.140;11.594;2024-03-06T16:54:53;96111.91;;;6.03;80.06
86206;BME280;76857;48.140;11.594;2024-03-06T16:57:19;96114.16;;;6.00;79.66
86206;BME280;76857;48.140;11.594;2024-03-06T16:59:44;96120.66;;;5.97;80.00
86206;BME280;76857;48.140;11.594;2024-03-06T17:02:10;96118.59;;;5.93;80.34
86206;BME280;76857;48.140;11.594;2024-03-06T17:04:35;96121.84;;;5.95;80.21
86206;BME280;76857;48.140;11.594;2024-03-06T17:07:01;96125.72;;;5.92;80.07
86206;BME280;76857;48.140;11.594;2024-03-06T17:09:34;96122.88;;;5.87;79.95
86206;BME280;76857;48.140;11.594;2024-03-06T17:12:00;96126.16;;;5.89;80.12
86206;BME280;76857;48.140;11.594;2024-03-06T17:14:25;96124.50;;;5.88;79.34
86206;BME280;76857;48.140;11.594;2024-03-06T17:16:51;96122.22;;;5.85;79.80
86206;BME280;76857;48.140;11.594;2024-03-06T17:19:16;96128.78;;;5.89;79.69
86206;BME280;76857;48.140;11.594;2024-03-06T17:21:42;96137.28;;;5.84;79.36
86206;BME280;76857;48.140;11.594;2024-03-06T17:24:08;96137.50;;;5.83;80.12
86206;BME280;76857;48.140;11.594;2024-03-06T17:26:33;96128.16;;;5.87;79.77
86206;BME280;76857;48.140;11.594;2024-03-06T17:29:02;96136.47;;;5.84;80.00
86206;BME280;76857;48.140;11.594;2024-03-06T17:31:28;96134.03;;;5.82;79.83
86206;BME280;76857;48.140;11.594;2024-03-06T17:33:53;96143.16;;;5.80;80.05
86206;BME280;76857;48.140;11.594;2024-03-06T17:36:19;96138.66;;;5.74;80.63
86206;BME280;76857;48.140;11.594;2024-03-06T17:38:44;96142.56;;;5.78;79.84
86206;BME280;76857;48.140;11.594;2024-03-06T17:41:12;96141.53;;;5.79;79.83
86206;BME280;76857;48.140;11.594;2024-03-06T17:43:37;96143.16;;;5.80;80.55
86206;BME280;76857;48.140;11.594;2024-03-06T17:46:02;96146.09;;;5.92;79.82
86206;BME280;76857;48.140;11.594;2024-03-06T17:48:28;96147.53;;;5.94;79.83
86206;BME280;76857;48.140;11.594;2024-03-06T17:50:53;96144.31;;;6.05;79.04
86206;BME280;76857;48.140;11.594;2024-03-06T17:53:19;96146.84;;;5.85;80.23
86206;BME280;76857;48.140;11.594;2024-03-06T17:55:44;96158.03;;;5.81;79.82
86206;BME280;76857;48.140;11.594;2024-03-06T17:58:10;96153.53;;;5.75;79.90
86206;BME280;76857;48.140;11.594;2024-03-06T18:00:36;96156.41;;;5.80;80.35
86206;BME280;76857;48.140;11.594;2024-03-06T18:03:01;96165.81;;;5.82;79.79
86206;BME280;76857;48.140;11.594;2024-03-06T18:05:27;96147.63;;;5.73;80.19
86206;BME280;76857;48.140;11.594;2024-03-06T18:07:52;96151.75;;;5.82;79.25